createdAt,value
2019-03-20T00:02:11.622Z,2.76
2019-03-20T00:05:15.704Z,2.81
2019-03-20T00:08:18.861Z,2.73
2019-03-20T00:11:22.025Z,2.64
2019-03-20T00:14:25.256Z,2.69
2019-03-20T00:17:28.515Z,2.69
2019-03-20T00:20:31.791Z,2.65
2019-03-20T00:23:34.984Z,2.53
2019-03-20T00:26:38.217Z,2.49
2019-03-20T00:29:41.422Z,2.53
2019-03-20T00:32:44.625Z,2.60
2019-03-20T00:35:47.863Z,2.83
2019-03-20T00:38:51.072Z,2.91
2019-03-20T00:41:54.360Z,2.97
2019-03-20T00:44:57.682Z,2.83
2019-03-20T00:48:00.850Z,2.78
2019-03-20T00:51:04.156Z,2.83
2019-03-20T00:54:08.350Z,2.88
2019-03-20T00:57:11.572Z,2.81
2019-03-20T01:00:16.638Z,2.74
2019-03-20T01:03:19.862Z,2.62
2019-03-20T01:06:23.055Z,2.47
2019-03-20T01:09:26.191Z,2.37
2019-03-20T01:12:29.391Z,2.29
2019-03-20T01:15:32.556Z,2.27
2019-03-20T01:18:35.812Z,2.27
2019-03-20T01:21:39.084Z,2.23
2019-03-20T01:24:42.333Z,1.99
2019-03-20T01:27:45.560Z,1.80
2019-03-20T01:30:48.803Z,1.81
2019-03-20T01:33:52.059Z,1.74
2019-03-20T01:36:55.356Z,1.77
2019-03-20T01:39:58.575Z,1.76
2019-03-20T01:43:01.791Z,1.81
2019-03-20T01:46:05.156Z,1.82
2019-03-20T01:49:08.336Z,1.91
2019-03-20T01:52:11.611Z,1.91
2019-03-20T01:55:14.812Z,1.86
2019-03-20T01:58:18.135Z,1.89
2019-03-20T02:01:21.579Z,1.98
2019-03-20T02:04:24.854Z,1.95
2019-03-20T04:08:02.524Z,1.13
2019-03-20T04:11:05.845Z,1.21
2019-03-20T04:14:09.071Z,1.27
2019-03-20T04:17:25.198Z,1.38
2019-03-20T04:20:28.375Z,1.18
2019-03-20T04:23:31.625Z,1.08
2019-03-20T04:26:34.876Z,1.04
2019-03-20T04:29:38.176Z,1.13
2019-03-20T04:32:41.398Z,1.09
2019-03-20T04:35:44.559Z,0.98
2019-03-20T04:38:47.798Z,0.89
2019-03-20T04:41:50.940Z,0.95
2019-03-20T04:44:54.243Z,1.06
2019-03-20T04:47:57.524Z,1.01
2019-03-20T04:51:00.719Z,0.92
2019-03-20T04:54:03.911Z,0.84
2019-03-20T04:57:07.218Z,0.94
2019-03-20T05:00:12.566Z,0.96
2019-03-20T05:03:15.811Z,1.09
2019-03-20T05:06:18.986Z,1.18
2019-03-20T05:09:22.242Z,1.23
2019-03-20T05:12:25.437Z,1.30
2019-03-20T05:15:28.671Z,1.27
2019-03-20T05:18:31.825Z,1.52
2019-03-20T05:21:35.473Z,1.71
2019-03-20T05:24:38.696Z,1.65
2019-03-20T05:27:41.896Z,1.56
2019-03-20T05:30:45.507Z,1.45
2019-03-20T05:33:48.634Z,1.40
2019-03-20T05:36:52.583Z,1.32
2019-03-20T05:39:55.841Z,1.34
2019-03-20T05:42:59.272Z,1.44
2019-03-20T05:46:02.424Z,1.32
2019-03-20T05:49:05.632Z,1.38
2019-03-20T05:52:08.897Z,1.51
2019-03-20T05:55:12.018Z,1.56
2019-03-20T05:58:15.227Z,1.78
2019-03-20T06:01:18.539Z,1.82
2019-03-20T06:04:21.773Z,2.13
2019-03-20T06:07:24.904Z,2.00
2019-03-20T06:10:28.319Z,1.83
2019-03-20T06:13:31.485Z,1.72
2019-03-20T06:16:34.785Z,1.64
2019-03-20T06:19:37.995Z,1.72
2019-03-20T06:22:41.164Z,1.82
2019-03-20T06:25:44.379Z,1.91
2019-03-20T06:28:47.634Z,1.91
2019-03-20T06:31:50.908Z,1.81
2019-03-20T06:34:54.053Z,1.73
2019-03-20T06:37:57.322Z,1.81
2019-03-20T06:41:00.888Z,1.92
2019-03-20T06:44:04.152Z,2.00
2019-03-20T06:47:07.323Z,2.06
2019-03-20T06:50:12.737Z,2.13
2019-03-20T06:53:15.968Z,2.23
2019-03-20T06:56:19.178Z,2.43
2019-03-20T06:59:57.588Z,2.55
2019-03-20T07:03:01.336Z,2.71
2019-03-20T07:06:18.296Z,2.89
2019-03-20T07:09:27.864Z,3.06
2019-03-20T07:12:31.146Z,3.13
2019-03-20T07:15:34.415Z,3.26
2019-03-20T07:18:37.715Z,3.39
2019-03-20T07:21:40.871Z,3.53
2019-03-20T07:24:44.086Z,3.76
2019-03-20T07:27:47.351Z,3.97
2019-03-20T07:30:50.633Z,3.99
2019-03-20T07:33:53.807Z,4.10
2019-03-20T07:36:57.017Z,4.20
2019-03-20T07:40:00.282Z,4.23
2019-03-20T07:43:08.639Z,4.29
2019-03-20T07:46:06.520Z,4.31
2019-03-20T07:49:09.723Z,4.47
2019-03-20T07:52:13.014Z,4.63
2019-03-20T07:55:16.162Z,4.77
2019-03-20T07:58:19.359Z,4.79
2019-03-20T08:01:22.933Z,4.95
2019-03-20T08:04:26.086Z,5.00
2019-03-20T08:07:29.340Z,5.28
2019-03-20T08:10:32.634Z,5.52
2019-03-20T08:13:35.924Z,5.53
2019-03-20T08:16:39.148Z,5.64
2019-03-20T08:19:42.387Z,5.73
2019-03-20T08:22:45.633Z,5.91
2019-03-20T08:25:48.866Z,6.14
2019-03-20T08:28:52.139Z,6.31
2019-03-20T08:31:55.418Z,6.55
2019-03-20T08:34:58.728Z,6.78
2019-03-20T08:38:02.006Z,6.94
2019-03-20T08:41:05.331Z,6.95
2019-03-20T08:44:08.494Z,7.21
2019-03-20T08:47:11.828Z,7.35
2019-03-20T08:50:16.703Z,7.34
2019-03-20T08:53:20.052Z,7.51
2019-03-20T08:56:23.859Z,7.59
2019-03-20T08:59:27.059Z,7.60
2019-03-20T09:02:30.295Z,7.53
2019-03-20T09:05:33.633Z,7.70
2019-03-20T09:08:36.937Z,7.56
2019-03-20T09:11:40.259Z,7.44
2019-03-20T09:14:43.521Z,7.81
2019-03-20T09:17:46.826Z,8.27
2019-03-20T09:20:50.103Z,8.60
2019-03-20T09:23:53.414Z,8.29
2019-03-20T09:26:56.659Z,8.20
2019-03-20T09:29:59.911Z,8.08
2019-03-20T09:33:03.103Z,8.13
2019-03-20T09:36:06.319Z,8.30
2019-03-20T09:39:09.669Z,8.21
2019-03-20T09:42:13.213Z,8.23
2019-03-20T09:45:16.539Z,8.31
2019-03-20T09:48:21.157Z,8.56
2019-03-20T09:51:24.441Z,8.66
2019-03-20T09:54:27.714Z,9.23
2019-03-20T09:57:31.010Z,9.62
2019-03-20T10:00:34.215Z,9.74
2019-03-20T10:03:37.532Z,9.65
2019-03-20T10:06:40.743Z,9.68
2019-03-20T10:09:43.991Z,9.81
2019-03-20T10:12:47.236Z,9.99
2019-03-20T10:15:50.496Z,9.87
2019-03-20T10:18:53.715Z,10.08
2019-03-20T10:21:56.914Z,9.97
2019-03-20T10:25:00.080Z,10.46
2019-03-20T10:28:03.306Z,11.09
2019-03-20T10:31:06.596Z,11.66
2019-03-20T10:34:09.869Z,11.82
2019-03-20T10:37:13.084Z,11.82
2019-03-20T10:40:18.154Z,11.78
2019-03-20T10:43:21.422Z,11.69
2019-03-20T10:46:24.607Z,11.36
2019-03-20T10:49:27.787Z,11.49
2019-03-20T10:52:31.079Z,11.79
2019-03-20T10:55:34.372Z,12.08
2019-03-20T10:58:38.424Z,12.54
2019-03-20T11:01:42.753Z,12.72
2019-03-20T11:04:44.937Z,12.83
2019-03-20T11:07:48.190Z,12.74
2019-03-20T11:10:51.478Z,12.58
2019-03-20T11:13:54.697Z,12.35
2019-03-20T11:16:57.961Z,12.34
2019-03-20T11:20:01.155Z,12.14
2019-03-20T11:23:04.432Z,12.69
2019-03-20T11:26:08.047Z,13.08
2019-03-20T11:29:11.255Z,13.23
2019-03-20T11:32:14.619Z,12.59
2019-03-20T11:35:17.792Z,12.45
2019-03-20T11:38:20.961Z,12.29
2019-03-20T11:41:24.197Z,12.77
2019-03-20T11:44:27.439Z,12.97
2019-03-20T11:47:31.307Z,13.37
2019-03-20T11:50:36.486Z,13.42
2019-03-20T11:53:39.655Z,13.48
2019-03-20T11:56:42.799Z,13.36
2019-03-20T11:59:46.108Z,13.25
2019-03-20T12:02:49.459Z,12.83
2019-03-20T12:05:52.763Z,12.54
2019-03-20T12:08:56.056Z,12.38
2019-03-20T12:11:59.255Z,12.69
2019-03-20T12:15:02.493Z,12.78
2019-03-20T12:18:05.769Z,13.09
2019-03-20T12:21:08.992Z,13.35
2019-03-20T12:24:12.224Z,13.48
2019-03-20T12:27:15.702Z,13.29
2019-03-20T12:30:20.344Z,13.63
2019-03-20T12:33:23.458Z,13.54
2019-03-20T12:36:26.692Z,13.96
2019-03-20T12:39:29.889Z,14.29
2019-03-20T12:42:33.172Z,13.28
2019-03-20T12:45:36.471Z,13.60
2019-03-20T12:48:39.984Z,13.29
2019-03-20T12:51:43.264Z,13.14
2019-03-20T12:54:46.441Z,13.05
2019-03-20T12:57:49.704Z,13.19
2019-03-20T13:00:54.495Z,13.97
2019-03-20T13:03:56.052Z,14.35
2019-03-20T13:06:59.224Z,14.74
2019-03-20T13:10:03.522Z,14.83
2019-03-20T13:13:05.847Z,14.92
2019-03-20T13:16:09.135Z,14.64
2019-03-20T13:19:12.447Z,14.85
2019-03-20T13:22:15.620Z,15.21
2019-03-20T13:25:18.784Z,14.88
2019-03-20T13:28:22.022Z,15.04
2019-03-20T13:31:26.234Z,14.47
2019-03-20T13:34:29.379Z,14.26
2019-03-20T13:37:32.710Z,14.92
2019-03-20T13:40:35.907Z,14.96
2019-03-20T13:43:39.195Z,14.88
2019-03-20T13:46:43.418Z,14.50
2019-03-20T13:49:46.613Z,14.68
2019-03-20T13:52:49.879Z,15.29
2019-03-20T13:55:53.207Z,15.38
2019-03-20T13:58:56.527Z,15.57
2019-03-20T14:01:59.808Z,15.73
2019-03-20T14:05:02.999Z,15.64
2019-03-20T14:08:06.272Z,15.33
2019-03-20T14:11:09.379Z,15.53
2019-03-20T14:14:12.675Z,15.13
2019-03-20T14:17:16.013Z,15.18
2019-03-20T14:20:21.179Z,15.73
2019-03-20T14:23:24.323Z,16.07
2019-03-20T14:26:27.504Z,15.97
2019-03-20T14:29:30.820Z,16.62
2019-03-20T14:32:33.991Z,16.94
2019-03-20T14:35:37.207Z,17.18
2019-03-20T14:38:40.478Z,16.83
2019-03-20T14:41:43.755Z,16.63
2019-03-20T14:44:47.503Z,16.63
2019-03-20T14:47:50.919Z,17.12
2019-03-20T14:50:54.187Z,17.50
2019-03-20T14:53:57.400Z,17.80
2019-03-20T14:57:00.574Z,17.89
2019-03-20T15:00:03.951Z,17.70
2019-03-20T15:03:07.227Z,18.08
2019-03-20T15:06:10.491Z,17.43
2019-03-20T15:09:13.765Z,17.50
2019-03-20T15:12:16.935Z,16.62
2019-03-20T15:15:23.921Z,16.70
2019-03-20T15:18:27.127Z,17.01
2019-03-20T15:21:30.456Z,17.19
2019-03-20T15:24:33.738Z,17.13
2019-03-20T15:27:36.958Z,16.97
2019-03-20T15:30:40.117Z,16.12
2019-03-20T15:33:43.411Z,15.94
2019-03-20T15:36:46.643Z,15.48
2019-03-20T15:39:49.896Z,15.65
2019-03-20T15:42:53.203Z,15.44
2019-03-20T15:45:56.422Z,15.42
2019-03-20T15:48:59.657Z,14.84
2019-03-20T15:52:02.917Z,14.47
2019-03-20T15:55:07.607Z,14.71
2019-03-20T15:58:11.660Z,14.62
2019-03-20T16:01:14.951Z,14.53
2019-03-20T16:04:18.214Z,14.46
2019-03-20T16:07:21.427Z,14.37
2019-03-20T16:10:24.738Z,14.41
2019-03-20T16:13:28.075Z,14.61
2019-03-20T16:16:31.255Z,14.78
2019-03-20T16:19:34.552Z,14.47
2019-03-20T16:22:37.661Z,14.69
2019-03-20T16:25:40.803Z,14.14
2019-03-20T16:28:43.991Z,13.79
2019-03-20T16:31:47.295Z,13.73
2019-03-20T16:34:50.559Z,14.09
2019-03-20T16:37:53.957Z,13.99
2019-03-20T16:40:57.433Z,13.91
2019-03-20T16:44:00.675Z,13.71
2019-03-20T16:47:03.879Z,13.68
2019-03-20T16:50:07.881Z,13.57
2019-03-20T16:53:11.195Z,13.58
2019-03-20T16:56:14.378Z,13.53
2019-03-20T16:59:17.683Z,13.60
2019-03-20T17:02:21.604Z,13.63
2019-03-20T17:05:24.858Z,13.65
2019-03-20T17:08:28.072Z,13.59
2019-03-20T17:11:38.396Z,13.51
2019-03-20T17:14:34.684Z,13.48
2019-03-20T17:17:37.884Z,13.39
2019-03-20T17:20:41.118Z,13.28
2019-03-20T17:23:44.359Z,13.29
2019-03-20T17:26:47.599Z,13.25
2019-03-20T17:29:51.147Z,13.15
2019-03-20T17:32:54.391Z,13.10
2019-03-20T17:35:57.736Z,13.06
2019-03-20T17:39:00.959Z,13.01
2019-03-20T17:42:04.209Z,12.95
2019-03-20T17:45:07.612Z,12.87
2019-03-20T17:48:10.838Z,12.78
2019-03-20T17:51:14.072Z,12.67
2019-03-20T17:54:17.335Z,12.39
2019-03-20T17:57:20.611Z,12.02
2019-03-20T18:00:29.531Z,11.93
2019-03-20T18:03:32.776Z,11.76
2019-03-20T18:06:36.047Z,11.63
2019-03-20T18:09:39.174Z,11.44
2019-03-20T18:12:42.344Z,11.14
2019-03-20T18:15:45.712Z,10.95
2019-03-20T18:18:48.864Z,10.77
2019-03-20T18:21:52.166Z,10.65
2019-03-20T18:24:55.323Z,10.51
2019-03-20T18:27:58.619Z,10.43
2019-03-20T18:31:02.581Z,10.45
2019-03-20T18:34:05.883Z,10.42
2019-03-20T18:37:09.027Z,10.35
2019-03-20T18:40:13.846Z,10.17
2019-03-20T18:43:17.037Z,9.97
2019-03-20T18:46:20.332Z,9.88
2019-03-20T18:49:23.692Z,9.93
2019-03-20T18:52:27.107Z,9.94
2019-03-20T18:55:30.265Z,10.00
2019-03-20T18:58:33.521Z,9.81
2019-03-20T19:01:36.840Z,9.77
2019-03-20T19:04:40.049Z,9.73
2019-03-20T19:07:43.334Z,9.63
2019-03-20T19:10:46.671Z,9.62
2019-03-20T19:13:49.933Z,9.46
2019-03-20T19:16:53.719Z,9.42
2019-03-20T19:19:56.915Z,9.39
2019-03-20T19:23:00.120Z,9.38
2019-03-20T19:26:03.423Z,9.36
2019-03-20T19:29:06.609Z,9.30
2019-03-20T19:32:09.815Z,9.16
2019-03-20T19:35:13.933Z,8.98
2019-03-20T19:38:18.102Z,8.79
2019-03-20T19:41:21.329Z,8.82
2019-03-20T19:44:24.534Z,8.85
2019-03-20T19:47:27.817Z,8.89
2019-03-20T19:50:31.258Z,8.75
2019-03-20T19:53:34.481Z,8.64
2019-03-20T19:56:37.809Z,8.58
2019-03-20T19:59:41.591Z,8.59
2019-03-20T20:02:44.798Z,8.49
2019-03-20T20:05:48.169Z,8.44
2019-03-20T20:08:51.547Z,8.39
2019-03-20T20:11:54.859Z,8.37
2019-03-20T20:14:58.091Z,8.24
2019-03-20T20:18:01.314Z,8.21
2019-03-20T20:21:04.504Z,8.15
2019-03-20T20:24:07.797Z,8.09
2019-03-20T20:27:11.743Z,8.03
2019-03-20T20:30:16.145Z,7.97
2019-03-20T20:33:21.452Z,7.90
2019-03-20T20:36:24.607Z,7.78
2019-03-20T20:39:27.890Z,7.72
2019-03-20T20:42:42.294Z,7.75
2019-03-20T20:45:34.269Z,7.74
2019-03-20T20:48:37.484Z,7.73
2019-03-20T20:51:40.660Z,7.55
2019-03-20T20:54:43.869Z,7.41
2019-03-20T20:57:47.001Z,7.35
2019-03-20T21:00:50.227Z,7.30
2019-03-20T21:03:53.532Z,7.18
2019-03-20T21:06:56.819Z,7.13
2019-03-20T21:10:00.242Z,7.09
2019-03-20T21:13:03.434Z,6.99
2019-03-20T21:30:04.858Z,6.87
2019-03-20T21:51:14.335Z,6.47
2019-03-20T21:55:09.059Z,6.45
2019-03-20T22:11:37.642Z,6.10
2019-03-20T22:25:05.887Z,5.81
2019-03-20T22:28:28.402Z,5.85
2019-03-20T22:55:16.758Z,4.91
